Time;durP1;ratioP1;P1;durP2;ratioP2;P2;SDS_P1;SDS_P2;PMS_P1;PMS_P2;Temp;Humidity;BMP_temperature;BMP_pressure;BME280_temperature;BME280_humidity;BME280_pressure;Samples;Min_cycle;Max_cycle;Signal;HPM_P1;HPM_P2
2024/02/26 00:02:07;;;;;;;4.20;1.23;;;21.30;39.60;;;;;;5115565;28;20304;-60
2024/02/26 00:04:36;;;;;;;4.13;1.23;;;21.30;39.60;;;;;;5115232;28;20193;-59
2024/02/26 00:07:02;;;;;;;5.82;1.27;;;21.30;39.60;;;;;;5115109;28;20209;-60
2024/02/26 00:09:30;;;;;;;6.43;1.23;;;21.30;39.60;;;;;;5115295;28;20219;-63
2024/02/26 00:11:57;;;;;;;3.42;1.17;;;21.30;39.60;;;;;;5115156;28;20664;-58
2024/02/26 00:14:24;;;;;;;3.85;1.10;;;21.30;39.60;;;;;;5114882;28;20229;-62
2024/02/26 00:16:51;;;;;;;5.15;1.27;;;21.30;39.60;;;;;;5115337;28;20301;-59
2024/02/26 00:19:18;;;;;;;5.20;1.23;;;21.30;39.60;;;;;;5115026;28;20185;-59
2024/02/26 00:21:46;;;;;;;7.30;1.33;;;21.30;39.60;;;;;;5114693;28;20209;-58
2024/02/26 00:24:13;;;;;;;3.03;1.17;;;21.30;39.60;;;;;;5115302;28;20196;-58
2024/02/26 00:26:40;;;;;;;4.55;1.23;;;21.30;39.50;;;;;;5114932;28;20303;-60
2024/02/26 00:29:07;;;;;;;3.92;0.98;;;21.30;39.50;;;;;;5114625;28;20312;-61
2024/02/26 00:31:34;;;;;;;4.35;1.30;;;21.30;39.50;;;;;;5114922;28;20220;-60
2024/02/26 00:34:02;;;;;;;2.53;0.95;;;21.30;40.20;;;;;;5114818;28;20284;-58
2024/02/26 00:36:28;;;;;;;3.40;1.10;;;21.30;39.50;;;;;;5114552;28;20304;-61
2024/02/26 00:38:56;;;;;;;4.50;1.20;;;21.30;40.20;;;;;;5114587;28;20563;-61
2024/02/26 00:41:23;;;;;;;4.05;1.08;;;21.30;39.50;;;;;;5114421;28;20725;-58
2024/02/26 00:43:50;;;;;;;3.63;1.00;;;21.30;39.50;;;;;;5114154;28;20196;-59
2024/02/26 00:46:17;;;;;;;7.97;1.50;;;21.30;39.50;;;;;;5114560;28;20300;-59
2024/02/26 00:48:44;;;;;;;4.22;1.17;;;21.30;39.50;;;;;;5114531;28;20236;-58
2024/02/26 00:51:11;;;;;;;5.18;1.30;;;21.30;39.50;;;;;;5114284;28;20300;-58
2024/02/26 00:53:38;;;;;;;6.72;1.20;;;21.20;39.40;;;;;;5114479;28;20185;-57
2024/02/26 00:56:06;;;;;;;6.35;1.38;;;21.20;39.40;;;;;;5114279;28;20186;-59
2024/02/26 00:58:33;;;;;;;2.47;0.90;;;21.30;39.50;;;;;;5114128;28;20185;-60
2024/02/26 01:01:00;;;;;;;4.05;1.20;;;21.30;39.50;;;;;;5114583;28;20276;-61
2024/02/26 01:03:27;;;;;;;4.35;1.50;;;21.30;39.40;;;;;;5114279;28;20199;-61
2024/02/26 01:05:54;;;;;;;8.85;1.38;;;21.30;39.40;;;;;;5113555;28;20189;-61
2024/02/26 01:08:20;;;;;;;7.78;1.23;;;21.30;40.00;;;;;;5114202;28;20196;-56
2024/02/26 01:10:47;;;;;;;4.88;1.10;;;21.20;39.30;;;;;;5114076;28;20326;-61
2024/02/26 01:13:16;;;;;;;7.10;1.48;;;21.30;39.30;;;;;;5113906;28;20212;-59
2024/02/26 01:15:43;;;;;;;3.78;1.10;;;21.30;39.30;;;;;;5114236;28;20212;-56
2024/02/26 01:18:10;;;;;;;5.13;1.13;;;21.30;39.30;;;;;;5113698;28;20266;-58
2024/02/26 01:20:37;;;;;;;3.85;1.05;;;21.20;39.20;;;;;;5113433;28;20277;-56
2024/02/26 01:23:05;;;;;;;6.05;1.10;;;21.20;39.20;;;;;;5113746;28;20212;-60
2024/02/26 01:25:31;;;;;;;4.70;1.27;;;21.30;39.20;;;;;;5113967;28;20276;-59
2024/02/26 01:27:58;;;;;;;6.93;1.35;;;21.20;39.10;;;;;;5113262;28;20698;-59
2024/02/26 01:30:26;;;;;;;7.70;1.17;;;21.20;39.70;;;;;;5113768;28;20217;-60
2024/02/26 01:32:53;;;;;;;5.60;1.30;;;21.20;39.10;;;;;;5113835;28;20224;-59
2024/02/26 01:35:20;;;;;;;5.65;1.10;;;21.20;39.00;;;;;;5113059;28;20534;-60
2024/02/26 01:37:47;;;;;;;4.35;1.30;;;21.30;39.10;;;;;;5113740;28;20217;-57
2024/02/26 01:40:17;;;;;;;5.57;1.35;;;21.30;39.10;;;;;;5113571;28;20185;-61
2024/02/26 01:42:45;;;;;;;5.60;1.38;;;21.20;39.00;;;;;;5113370;28;20231;-63
2024/02/26 01:45:20;;;;;;;4.68;1.00;;;21.20;39.00;;;;;;5113107;28;20730;-62
2024/02/26 01:47:51;;;;;;;3.70;1.10;;;21.20;39.00;;;;;;5113310;28;20212;-61
2024/02/26 01:50:18;;;;;;;4.97;1.13;;;21.20;39.00;;;;;;5113065;28;20225;-61
2024/02/26 01:52:46;;;;;;;5.28;1.20;;;21.20;38.90;;;;;;5113487;28;20690;-57
2024/02/26 01:55:15;;;;;;;6.35;1.10;;;21.20;39.00;;;;;;5113029;28;20285;-59
2024/02/26 01:57:42;;;;;;;6.35;1.42;;;21.20;38.90;;;;;;5113308;28;20228;-59
2024/02/26 02:00:11;;;;;;;8.00;1.13;;;21.20;38.90;;;;;;5112956;28;20742;-59
2024/02/26 02:02:38;;;;;;;3.97;1.13;;;21.20;38.90;;;;;;5113338;28;20213;-56
2024/02/26 02:05:08;;;;;;;5.05;1.20;;;21.20;38.80;;;;;;5113035;28;20304;-54
2024/02/26 02:07:36;;;;;;;6.60;1.50;;;21.20;38.80;;;;;;5112996;28;20251;-60
2024/02/26 02:10:04;;;;;;;4.03;1.20;;;21.20;38.80;;;;;;5112968;28;20320;-62
2024/02/26 02:12:32;;;;;;;5.57;1.25;;;21.20;38.80;;;;;;5112624;28;20299;-62
2024/02/26 02:14:59;;;;;;;3.75;1.20;;;21.20;38.70;;;;;;5112328;28;20229;-59
2024/02/26 02:17:28;;;;;;;5.60;1.27;;;21.10;38.70;;;;;;5112769;28;20312;-59
2024/02/26 02:19:55;;;;;;;3.63;1.20;;;21.20;38.80;;;;;;5112758;28;20812;-57
2024/02/26 02:22:23;;;;;;;5.03;1.10;;;21.20;38.70;;;;;;5127048;27;20223;-62
2024/02/26 02:24:50;;;;;;;4.15;1.13;;;21.20;38.70;;;;;;5133364;27;20276;-56
2024/02/26 02:27:17;;;;;;;3.25;1.30;;;21.20;38.70;;;;;;5133223;27;20223;-61
2024/02/26 02:29:45;;;;;;;8.05;1.15;;;21.20;38.70;;;;;;5132853;27;20208;-55
2024/02/26 02:32:12;;;;;;;3.63;1.20;;;21.20;38.60;;;;;;5133277;27;20311;-61
2024/02/26 02:34:38;;;;;;;2.83;1.00;;;21.20;38.60;;;;;;5132983;27;20273;-62
2024/02/26 02:37:05;;;;;;;3.17;1.23;;;21.20;38.50;;;;;;5133349;27;20208;-61
2024/02/26 02:39:34;;;;;;;4.55;1.23;;;21.20;38.50;;;;;;5133213;28;20176;-59
2024/02/26 02:42:00;;;;;;;3.72;1.23;;;21.20;38.50;;;;;;5132781;28;20812;-58
2024/02/26 02:44:27;;;;;;;2.42;1.05;;;21.20;39.20;;;;;;5132897;28;20191;-60
2024/02/26 02:46:54;;;;;;;4.40;1.10;;;21.20;38.50;;;;;;5133241;28;20216;-62
2024/02/26 02:49:23;;;;;;;7.05;1.30;;;21.20;38.40;;;;;;5132549;28;20222;-57
2024/02/26 02:51:50;;;;;;;7.25;1.45;;;21.20;38.40;;;;;;5133207;28;20236;-61
2024/02/26 02:54:17;;;;;;;7.30;1.25;;;21.20;38.40;;;;;;5132793;28;20623;-59
2024/02/26 02:56:45;;;;;;;3.92;1.10;;;21.20;38.40;;;;;;5132762;28;20222;-58
2024/02/26 02:59:12;;;;;;;7.72;1.30;;;21.20;38.40;;;;;;5133335;28;20283;-61
2024/02/26 03:01:38;;;;;;;6.68;1.15;;;21.20;38.30;;;;;;5133046;28;20209;-60
2024/02/26 03:04:05;;;;;;;6.95;1.50;;;21.20;38.20;;;;;;5132780;28;20188;-58
2024/02/26 03:06:32;;;;;;;4.68;1.25;;;21.20;38.90;;;;;;5132915;28;20223;-56
2024/02/26 03:09:00;;;;;;;6.18;1.40;;;21.20;38.20;;;;;;5132982;28;20188;-56
2024/02/26 03:11:27;;;;;;;4.40;1.30;;;21.20;38.20;;;;;;5132525;28;20288;-60
2024/02/26 03:13:56;;;;;;;5.80;1.30;;;21.20;38.20;;;;;;5139932;27;20223;-61
2024/02/26 03:16:22;;;;;;;6.30;1.27;;;21.20;38.20;;;;;;5153889;27;20223;-58
2024/02/26 03:18:49;;;;;;;5.28;1.25;;;21.20;38.20;;;;;;5153460;27;20271;-61
2024/02/26 03:21:16;;;;;;;3.35;1.00;;;21.10;38.10;;;;;;5153531;27;20234;-58
2024/02/26 03:23:43;;;;;;;6.22;1.48;;;21.10;38.10;;;;;;5153170;27;20184;-62
2024/02/26 03:26:13;;;;;;;5.00;1.38;;;21.10;38.10;;;;;;5154469;27;20187;-59
2024/02/26 03:28:40;;;;;;;8.88;1.50;;;21.10;38.10;;;;;;5157407;27;20196;-60
2024/02/26 03:31:08;;;;;;;2.97;1.20;;;21.10;38.10;;;;;;5157373;27;20233;-61
2024/02/26 03:33:35;;;;;;;5.90;1.60;;;21.10;38.10;;;;;;5157437;27;20195;-62
2024/02/26 03:36:02;;;;;;;8.90;1.38;;;21.10;38.10;;;;;;5157253;27;20203;-62
2024/02/26 03:38:30;;;;;;;6.90;1.35;;;21.10;38.10;;;;;;5157107;27;20626;-59
2024/02/26 03:40:56;;;;;;;5.70;1.50;;;21.10;38.10;;;;;;5156960;27;20191;-59
2024/02/26 03:43:23;;;;;;;4.90;1.30;;;21.10;38.00;;;;;;5156779;27;20693;-60
2024/02/26 03:45:50;;;;;;;3.85;1.25;;;21.10;38.00;;;;;;5157093;27;20555;-60
2024/02/26 03:48:18;;;;;;;6.55;1.80;;;21.10;38.00;;;;;;5157220;27;20215;-61
2024/02/26 03:50:45;;;;;;;4.63;1.45;;;21.10;38.00;;;;;;5156877;27;20211;-60
2024/02/26 03:53:12;;;;;;;6.28;1.73;;;21.10;38.00;;;;;;5156563;27;20561;-59
2024/02/26 03:55:41;;;;;;;6.32;1.80;;;21.10;38.00;;;;;;5156604;27;20195;-60
2024/02/26 03:58:08;;;;;;;6.20;1.50;;;21.10;38.00;;;;;;5156844;27;20215;-60
2024/02/26 04:00:35;;;;;;;4.88;1.42;;;21.10;37.90;;;;;;5156751;27;20183;-60
2024/02/26 04:03:02;;;;;;;8.98;1.80;;;21.10;37.90;;;;;;5156484;27;20299;-60
2024/02/26 04:05:30;;;;;;;5.88;1.60;;;21.10;37.90;;;;;;5156711;27;20215;-58
2024/02/26 04:07:57;;;;;;;5.03;1.63;;;21.10;38.00;;;;;;5156753;27;20572;-60
2024/02/26 04:10:24;;;;;;;5.10;1.40;;;21.10;37.90;;;;;;5156057;27;20803;-56
2024/02/26 04:12:51;;;;;;;5.40;1.60;;;21.10;38.60;;;;;;5156762;27;20567;-60
2024/02/26 04:15:18;;;;;;;6.30;1.45;;;21.10;37.90;;;;;;5156060;27;20314;-58
2024/02/26 04:17:45;;;;;;;5.70;1.55;;;21.10;37.90;;;;;;5156382;27;20298;-62
2024/02/26 04:20:15;;;;;;;3.45;1.20;;;21.10;37.90;;;;;;5156105;27;20645;-60
2024/02/26 04:22:43;;;;;;;4.75;1.83;;;21.10;37.90;;;;;;5156439;27;20215;-57
2024/02/26 04:25:10;;;;;;;5.25;1.65;;;21.10;37.80;;;;;;5155795;27;20749;-56
2024/02/26 04:27:38;;;;;;;8.05;1.58;;;21.10;37.80;;;;;;5156250;27;20211;-56
2024/02/26 04:30:06;;;;;;;5.55;1.52;;;21.10;37.80;;;;;;5156376;27;20260;-57
2024/02/26 04:32:34;;;;;;;8.25;2.00;;;21.10;37.80;;;;;;5156075;27;20211;-58
2024/02/26 04:35:01;;;;;;;4.70;1.63;;;21.10;37.80;;;;;;5156100;27;20184;-57
2024/02/26 04:37:30;;;;;;;6.78;1.88;;;21.10;37.70;;;;;;5155764;27;20298;-59
2024/02/26 04:39:59;;;;;;;7.60;1.90;;;21.10;37.80;;;;;;5155938;27;20274;-59
2024/02/26 04:42:26;;;;;;;8.70;1.90;;;21.10;37.80;;;;;;5155980;27;20294;-60
2024/02/26 04:44:53;;;;;;;7.15;1.55;;;21.10;37.80;;;;;;5155527;27;20194;-56
2024/02/26 04:47:21;;;;;;;4.93;1.77;;;21.10;37.80;;;;;;5155754;27;20302;-59
2024/02/26 04:49:48;;;;;;;6.63;1.55;;;21.10;37.80;;;;;;5155390;27;20184;-58
2024/02/26 04:52:15;;;;;;;7.13;1.55;;;21.10;37.70;;;;;;5155840;27;20307;-59
2024/02/26 04:54:42;;;;;;;5.38;1.58;;;21.10;37.70;;;;;;5155588;27;20180;-55
2024/02/26 04:57:10;;;;;;;5.18;2.00;;;21.10;37.70;;;;;;5155672;27;20593;-55
2024/02/26 04:59:37;;;;;;;6.20;2.05;;;21.10;37.70;;;;;;5155709;27;20275;-55
2024/02/26 05:02:04;;;;;;;5.57;1.73;;;21.10;37.70;;;;;;5155574;27;20219;-61
2024/02/26 05:04:31;;;;;;;6.38;2.08;;;21.10;37.70;;;;;;5154934;27;20183;-58
2024/02/26 05:06:58;;;;;;;5.78;1.98;;;21.10;37.70;;;;;;5155516;27;20222;-59
2024/02/26 05:09:25;;;;;;;6.13;1.90;;;21.10;37.70;;;;;;5155167;27;20645;-60
2024/02/26 05:11:52;;;;;;;7.80;2.15;;;21.10;37.70;;;;;;5154869;27;20238;-60
2024/02/26 05:14:21;;;;;;;6.60;1.88;;;21.10;37.70;;;;;;5155153;27;20222;-57
2024/02/26 05:16:48;;;;;;;6.30;2.00;;;21.10;37.70;;;;;;5155188;27;20222;-62
2024/02/26 05:19:15;;;;;;;11.35;2.20;;;21.00;37.70;;;;;;5155018;27;20274;-59
2024/02/26 05:21:42;;;;;;;10.32;2.20;;;21.10;37.70;;;;;;5155267;27;20271;-62
2024/02/26 05:24:09;;;;;;;9.50;2.15;;;21.00;37.70;;;;;;5155118;27;20192;-59
2024/02/26 05:26:36;;;;;;;5.60;2.15;;;21.00;37.70;;;;;;5154888;27;20216;-58
2024/02/26 05:29:03;;;;;;;11.38;2.40;;;21.00;37.60;;;;;;5155218;27;20266;-60
2024/02/26 05:31:31;;;;;;;7.78;2.28;;;21.00;37.70;;;;;;5154902;27;20217;-59
2024/02/26 05:33:58;;;;;;;6.07;2.38;;;21.00;37.60;;;;;;5154420;27;20722;-62
2024/02/26 05:36:25;;;;;;;6.78;2.25;;;21.10;37.70;;;;;;5154831;27;20187;-61
2024/02/26 05:38:52;;;;;;;10.95;2.10;;;21.10;37.70;;;;;;5154781;27;20220;-58
2024/02/26 05:41:22;;;;;;;6.07;2.05;;;21.10;37.60;;;;;;5154551;27;20275;-59
2024/02/26 05:43:50;;;;;;;5.90;2.05;;;21.10;37.60;;;;;;5154441;27;20641;-62
2024/02/26 05:46:17;;;;;;;8.57;2.30;;;21.10;37.50;;;;;;5154607;27;20188;-58
2024/02/26 05:48:48;;;;;;;8.30;2.08;;;21.10;38.10;;;;;;5153427;27;20283;-61
2024/02/26 05:51:15;;;;;;;10.20;2.13;;;21.10;37.40;;;;;;5154571;27;20215;-62
2024/02/26 05:53:42;;;;;;;9.35;2.03;;;21.10;37.40;;;;;;5154778;27;20258;-58
2024/02/26 05:56:09;;;;;;;8.93;2.42;;;21.10;37.40;;;;;;5154392;27;20180;-62
2024/02/26 05:58:36;;;;;;;8.45;2.10;;;21.10;37.40;;;;;;5154167;27;20302;-60
2024/02/26 06:01:03;;;;;;;8.52;2.50;;;21.10;37.40;;;;;;5154495;27;20210;-61
2024/02/26 06:03:30;;;;;;;8.02;2.17;;;21.10;37.40;;;;;;5154442;27;20302;-57
2024/02/26 06:05:58;;;;;;;6.53;1.90;;;21.10;37.40;;;;;;5154305;27;20183;-59
2024/02/26 06:08:25;;;;;;;9.32;2.53;;;21.10;37.40;;;;;;5154559;27;20216;-61
2024/02/26 06:10:52;;;;;;;12.45;2.45;;;21.10;37.40;;;;;;5153684;27;20302;-61
2024/02/26 06:13:19;;;;;;;8.02;2.30;;;21.10;37.30;;;;;;5154222;27;20212;-58
2024/02/26 06:15:46;;;;;;;9.40;2.45;;;21.10;37.40;;;;;;5154461;27;20287;-58
2024/02/26 06:18:12;;;;;;;7.28;2.58;;;21.10;37.40;;;;;;5153799;27;20709;-59
2024/02/26 06:20:39;;;;;;;10.35;2.10;;;21.10;37.30;;;;;;5153896;27;20188;-62
2024/02/26 06:23:08;;;;;;;8.52;2.30;;;21.10;37.30;;;;;;5154265;27;20207;-62
2024/02/26 06:25:35;;;;;;;7.30;2.35;;;21.10;37.30;;;;;;5153834;27;20206;-62
2024/02/26 06:28:02;;;;;;;11.60;2.20;;;21.10;37.30;;;;;;5154175;27;20298;-60
2024/02/26 06:30:29;;;;;;;10.57;2.55;;;21.00;37.30;;;;;;5153984;27;20329;-58
2024/02/26 06:32:55;;;;;;;4.95;2.03;;;21.10;37.30;;;;;;5153603;27;20208;-58
2024/02/26 06:35:22;;;;;;;7.88;2.20;;;21.00;37.20;;;;;;5153963;27;20425;-58
2024/02/26 06:37:52;;;;;;;5.90;2.20;;;21.10;37.40;;;;;;5153722;27;20577;-60
2024/02/26 06:40:20;;;;;;;13.18;2.45;;;21.00;37.20;;;;;;5153447;27;20553;-61
2024/02/26 06:42:47;;;;;;;8.02;2.30;;;21.00;37.30;;;;;;5153813;27;20303;-61
2024/02/26 06:45:14;;;;;;;7.65;2.40;;;21.00;37.20;;;;;;5153502;27;20552;-60
2024/02/26 06:47:41;;;;;;;8.98;2.25;;;21.00;37.20;;;;;;5153736;27;20211;-58
2024/02/26 06:50:08;;;;;;;8.75;2.60;;;21.00;37.30;;;;;;5153891;27;20194;-62
2024/02/26 06:52:35;;;;;;;7.65;2.03;;;21.00;37.30;;;;;;5153827;27;20231;-59
2024/02/26 06:55:02;;;;;;;10.88;2.47;;;21.00;37.20;;;;;;5153556;27;20588;-61
2024/02/26 06:57:30;;;;;;;7.82;2.45;;;21.00;37.20;;;;;;5154050;27;20211;-60
2024/02/26 06:59:59;;;;;;;10.13;2.58;;;21.00;37.30;;;;;;5154180;27;20651;-54
2024/02/26 07:02:26;;;;;;;9.75;2.60;;;21.00;37.20;;;;;;5157904;27;20219;-60
2024/02/26 07:04:52;;;;;;;11.25;2.92;;;21.00;37.80;;;;;;5157869;27;20187;-59
2024/02/26 07:07:19;;;;;;;10.18;2.63;;;21.00;37.30;;;;;;5157619;27;20306;-59
2024/02/26 07:09:46;;;;;;;11.18;2.80;;;21.10;37.40;;;;;;5157718;27;20229;-60
2024/02/26 07:12:13;;;;;;;8.20;2.85;;;21.10;37.30;;;;;;5157620;27;20233;-60
2024/02/26 07:14:42;;;;;;;9.55;2.70;;;21.10;37.30;;;;;;5157510;27;20223;-59
2024/02/26 07:17:08;;;;;;;10.32;2.80;;;21.10;37.30;;;;;;5157620;27;20264;-59
2024/02/26 07:19:35;;;;;;;10.77;2.50;;;21.10;37.20;;;;;;5157370;27;20187;-58
2024/02/26 07:22:02;;;;;;;9.35;2.50;;;21.10;37.10;;;;;;5157654;27;20215;-61
2024/02/26 07:24:29;;;;;;;9.25;2.85;;;21.20;37.10;;;;;;5157294;27;20274;-57
2024/02/26 07:26:56;;;;;;;8.32;2.88;;;21.10;37.00;;;;;;5157659;27;20305;-63
2024/02/26 07:29:23;;;;;;;9.48;2.78;;;21.20;37.00;;;;;;5157203;27;20198;-58
2024/02/26 07:31:51;;;;;;;8.40;2.65;;;21.10;36.90;;;;;;5156768;27;20237;-63
2024/02/26 07:34:18;;;;;;;11.10;3.17;;;21.10;36.90;;;;;;5157333;27;20190;-56
2024/02/26 07:36:46;;;;;;;9.75;2.65;;;21.10;36.80;;;;;;5157258;27;20261;-57
2024/02/26 07:39:12;;;;;;;10.90;2.45;;;21.10;36.80;;;;;;5157284;27;20217;-58
2024/02/26 07:41:39;;;;;;;12.85;2.70;;;21.10;36.80;;;;;;5156899;27;20188;-59
2024/02/26 07:44:06;;;;;;;9.38;2.85;;;21.10;36.80;;;;;;5156984;27;20186;-62
2024/02/26 07:46:33;;;;;;;10.07;2.83;;;21.00;36.90;;;;;;5156539;27;20570;-60
2024/02/26 07:49:01;;;;;;;9.38;2.65;;;21.10;36.80;;;;;;5156865;27;20194;-63
2024/02/26 07:51:28;;;;;;;8.70;3.13;;;21.00;36.80;;;;;;5156801;27;20220;-63
2024/02/26 07:53:55;;;;;;;9.85;2.47;;;21.00;36.80;;;;;;5156467;27;20194;-62
2024/02/26 07:56:22;;;;;;;10.20;2.92;;;21.00;36.90;;;;;;5156597;27;20190;-58
2024/02/26 07:58:49;;;;;;;11.20;2.67;;;21.10;36.90;;;;;;5124908;27;20246;-60
2024/02/26 08:01:15;;;;;;;9.63;3.33;;;21.10;36.90;;;;;;5127280;27;20198;-61
2024/02/26 08:03:42;;;;;;;15.05;2.80;;;21.10;36.90;;;;;;5134969;27;20295;-62
2024/02/26 08:06:10;;;;;;;9.43;2.80;;;21.10;36.90;;;;;;5116401;27;20219;-63
2024/02/26 08:08:37;;;;;;;9.93;2.50;;;21.10;36.90;;;;;;5126231;27;20216;-57
2024/02/26 08:11:05;;;;;;;10.13;2.65;;;21.10;36.90;;;;;;5128647;27;20261;-55
2024/02/26 08:13:32;;;;;;;13.23;3.20;;;21.10;37.00;;;;;;5133091;27;20233;-58
2024/02/26 08:15:58;;;;;;;8.57;2.58;;;21.10;37.10;;;;;;5133320;27;20200;-55
2024/02/26 08:18:25;;;;;;;9.10;2.65;;;21.10;37.30;;;;;;5099139;27;20256;-55
2024/02/26 08:20:52;;;;;;;10.02;2.50;;;21.10;37.70;;;;;;5104276;28;20201;-58
2024/02/26 08:23:20;;;;;;;10.43;2.47;;;21.10;37.70;;;;;;5112452;27;20788;-58
2024/02/26 08:25:47;;;;;;;12.32;3.10;;;21.20;37.00;;;;;;5130712;27;20188;-56
2024/02/26 08:28:17;;;;;;;13.40;2.95;;;21.20;37.00;;;;;;5130802;27;20307;-56
2024/02/26 08:30:44;;;;;;;12.75;3.00;;;21.20;36.80;;;;;;5132507;27;20201;-59
2024/02/26 08:33:11;;;;;;;10.60;2.78;;;21.10;36.70;;;;;;5114843;27;20221;-59
2024/02/26 08:35:38;;;;;;;9.75;2.67;;;21.10;36.60;;;;;;5105036;28;20461;-58
2024/02/26 08:38:05;;;;;;;9.23;2.45;;;21.20;36.70;;;;;;5112765;28;20217;-54
2024/02/26 08:40:33;;;;;;;8.38;2.40;;;21.10;36.60;;;;;;5111461;28;20288;-54
2024/02/26 08:43:00;;;;;;;8.88;2.40;;;21.20;36.70;;;;;;5112289;28;20221;-58
2024/02/26 08:45:27;;;;;;;10.73;2.33;;;21.20;36.80;;;;;;5112149;28;20189;-56
2024/02/26 08:47:54;;;;;;;6.82;2.50;;;21.10;36.60;;;;;;5111233;28;20236;-56
2024/02/26 08:50:21;;;;;;;8.63;2.35;;;21.10;36.50;;;;;;5118611;27;20224;-55
2024/02/26 08:52:50;;;;;;;8.20;2.35;;;21.10;36.40;;;;;;5114838;27;20227;-56
2024/02/26 08:55:17;;;;;;;10.98;3.13;;;21.20;36.50;;;;;;5111700;28;20654;-56
2024/02/26 08:57:46;;;;;;;8.00;2.58;;;21.20;36.40;;;;;;5111907;28;20229;-56
2024/02/26 09:00:15;;;;;;;10.65;3.00;;;21.20;36.40;;;;;;5111635;28;20217;-56
2024/02/26 09:02:43;;;;;;;10.60;2.72;;;21.20;36.40;;;;;;5105225;28;20315;-51
2024/02/26 09:05:10;;;;;;;9.02;2.20;;;21.20;36.20;;;;;;5098650;28;20201;-56
2024/02/26 09:07:37;;;;;;;10.15;2.47;;;21.20;36.20;;;;;;5106629;27;20228;-57
2024/02/26 09:10:05;;;;;;;9.07;2.25;;;21.20;36.20;;;;;;5112351;27;20193;-56
2024/02/26 09:12:32;;;;;;;12.90;2.60;;;21.20;36.00;;;;;;5108288;28;20792;-55
2024/02/26 09:15:00;;;;;;;10.40;2.22;;;21.20;36.00;;;;;;5127291;27;20240;-53
2024/02/26 09:17:27;;;;;;;8.57;2.42;;;21.20;35.80;;;;;;5130987;27;20661;-57
2024/02/26 09:19:54;;;;;;;8.75;2.28;;;21.20;35.80;;;;;;5131755;27;20194;-54
2024/02/26 09:22:21;;;;;;;12.77;2.35;;;21.20;35.70;;;;;;5132752;27;20586;-57
2024/02/26 09:24:49;;;;;;;8.50;2.30;;;21.20;35.70;;;;;;5131102;27;20255;-56
2024/02/26 09:27:17;;;;;;;8.68;2.25;;;21.20;35.50;;;;;;5130870;27;20630;-56
2024/02/26 09:29:44;;;;;;;9.70;2.17;;;21.20;35.50;;;;;;5124670;27;20197;-54
2024/02/26 09:32:12;;;;;;;8.63;2.63;;;21.30;35.60;;;;;;5123061;27;20315;-54
2024/02/26 09:34:41;;;;;;;8.43;2.42;;;21.30;35.40;;;;;;5124785;27;20598;-55
2024/02/26 09:37:08;;;;;;;9.43;2.80;;;21.20;35.30;;;;;;5131350;27;20220;-56
2024/02/26 09:39:34;;;;;;;9.32;2.17;;;21.20;35.20;;;;;;5132002;27;20194;-57
2024/02/26 09:42:06;;;;;;;9.32;2.83;;;21.20;35.90;;;;;;5131342;27;20226;-53
2024/02/26 09:44:38;;;;;;;9.15;2.20;;;21.20;35.20;;;;;;5130602;27;20626;-56
2024/02/26 09:47:08;;;;;;;3.78;1.88;;;21.20;35.10;;;;;;5121974;27;20220;-53
2024/02/26 09:49:38;;;;;;;17.67;3.08;;;21.20;35.00;;;;;;5128240;27;20283;-56
2024/02/26 09:52:06;;;;;;;15.30;2.58;;;21.20;35.10;;;;;;5129946;27;20757;-56
2024/02/26 09:54:34;;;;;;;14.23;2.70;;;21.20;35.10;;;;;;5126582;27;20228;-56
2024/02/26 09:57:03;;;;;;;13.93;2.70;;;21.20;35.10;;;;;;5125916;27;20301;-55
2024/02/26 09:59:37;;;;;;;10.15;2.45;;;21.20;35.20;;;;;;5130608;27;20200;-64
2024/02/26 10:02:05;;;;;;;10.30;2.30;;;21.20;35.20;;;;;;5130424;27;20303;-65
2024/02/26 10:04:32;;;;;;;12.13;2.50;;;21.20;35.00;;;;;;5129715;27;20287;-66
2024/02/26 10:07:03;;;;;;;9.68;2.00;;;21.30;35.10;;;;;;5129139;27;20216;-66
2024/02/26 10:09:31;;;;;;;10.13;2.15;;;21.30;35.30;;;;;;5131271;27;20200;-66
2024/02/26 10:11:59;;;;;;;8.07;2.55;;;21.30;35.30;;;;;;5122386;27;20224;-68
2024/02/26 10:14:26;;;;;;;15.32;2.60;;;21.30;35.40;;;;;;5121996;27;20257;-67
2024/02/26 10:16:53;;;;;;;9.93;2.13;;;21.30;35.50;;;;;;5130190;27;20287;-64
2024/02/26 10:19:27;;;;;;;14.40;2.42;;;21.30;35.70;;;;;;5131227;27;20222;-62
2024/02/26 10:21:57;;;;;;;8.23;2.25;;;21.30;36.00;;;;;;5130883;27;20196;-63
2024/02/26 10:24:25;;;;;;;7.78;1.95;;;21.30;36.30;;;;;;5131124;27;20198;-62
2024/02/26 10:26:53;;;;;;;9.07;1.90;;;21.30;36.80;;;;;;5130120;27;20200;-64
2024/02/26 10:29:20;;;;;;;15.73;2.15;;;21.30;36.70;;;;;;5130729;27;20188;-63
2024/02/26 10:31:47;;;;;;;14.70;2.78;;;21.30;36.70;;;;;;5128649;27;20234;-64
2024/02/26 10:34:16;;;;;;;12.00;2.38;;;21.30;36.90;;;;;;5130457;27;20733;-65
2024/02/26 10:36:43;;;;;;;8.07;1.90;;;21.30;36.70;;;;;;5130035;27;20637;-63
2024/02/26 10:39:12;;;;;;;10.05;2.60;;;21.30;36.90;;;;;;5130951;27;20235;-66
2024/02/26 10:41:41;;;;;;;9.02;2.40;;;21.30;36.50;;;;;;5130391;28;20192;-66
2024/02/26 10:44:10;;;;;;;8.48;2.55;;;21.30;36.30;;;;;;5130871;28;20283;-65
2024/02/26 10:46:38;;;;;;;6.57;2.13;;;21.30;36.00;;;;;;5130157;28;20200;-63
2024/02/26 10:49:06;;;;;;;6.25;2.13;;;21.30;35.70;;;;;;5131131;28;20303;-64
2024/02/26 10:51:57;;;;;;;8.05;2.00;;;21.30;35.80;;;;;;5131039;28;20192;-64
2024/02/26 10:54:28;;;;;;;8.23;1.92;;;21.30;35.60;;;;;;5131049;28;20704;-63
2024/02/26 10:56:58;;;;;;;9.82;2.42;;;21.20;35.70;;;;;;5130048;28;20195;-62
2024/02/26 10:59:25;;;;;;;10.60;2.35;;;21.20;35.60;;;;;;5129395;28;20211;-64
2024/02/26 11:01:53;;;;;;;9.27;2.38;;;21.20;35.50;;;;;;5130162;28;20731;-62
2024/02/26 11:04:22;;;;;;;7.45;2.05;;;21.20;35.40;;;;;;5130406;28;20355;-65
2024/02/26 11:06:51;;;;;;;11.63;2.38;;;21.20;35.30;;;;;;5127086;28;20185;-63
2024/02/26 11:09:18;;;;;;;9.77;1.95;;;21.20;35.20;;;;;;5130642;28;20189;-62
2024/02/26 11:11:45;;;;;;;12.43;2.47;;;21.20;35.00;;;;;;5129850;28;20601;-64
2024/02/26 11:14:15;;;;;;;7.32;2.10;;;21.20;35.00;;;;;;5130087;28;20311;-63
2024/02/26 11:16:42;;;;;;;8.27;2.13;;;21.20;35.00;;;;;;5128904;28;20752;-65
2024/02/26 11:19:12;;;;;;;8.20;2.13;;;21.20;34.90;;;;;;5130974;28;20227;-65
2024/02/26 11:21:42;;;;;;;6.82;2.13;;;21.20;34.90;;;;;;5129172;28;20661;-64
2024/02/26 11:24:13;;;;;;;17.38;2.05;;;21.20;34.80;;;;;;5130326;28;20225;-63
2024/02/26 11:26:45;;;;;;;9.10;2.10;;;21.30;34.90;;;;;;5130367;28;20192;-63
2024/02/26 11:29:16;;;;;;;6.43;2.08;;;21.30;34.60;;;;;;5130180;28;20308;-64
2024/02/26 11:31:43;;;;;;;9.23;1.92;;;21.30;34.50;;;;;;5129740;28;20732;-63
2024/02/26 11:34:11;;;;;;;7.00;2.03;;;21.30;34.30;;;;;;5130183;28;20267;-63
2024/02/26 11:36:39;;;;;;;6.55;2.25;;;21.30;34.10;;;;;;5129162;28;20280;-62
2024/02/26 11:39:06;;;;;;;6.30;1.90;;;21.30;34.20;;;;;;5130782;28;20220;-63
2024/02/26 11:41:33;;;;;;;9.10;1.92;;;21.40;34.10;;;;;;5130149;28;20275;-63
2024/02/26 11:44:01;;;;;;;6.85;2.10;;;21.40;34.00;;;;;;5130176;28;20220;-65
2024/02/26 11:46:31;;;;;;;6.40;1.90;;;21.40;33.80;;;;;;5129394;27;20234;-66
2024/02/26 11:49:00;;;;;;;5.35;1.88;;;21.40;33.70;;;;;;5134035;27;20255;-65
2024/02/26 11:51:28;;;;;;;6.25;2.25;;;21.40;33.60;;;;;;5134108;27;20196;-64
2024/02/26 11:53:57;;;;;;;7.97;1.88;;;21.40;33.70;;;;;;5133651;27;20228;-64
2024/02/26 11:56:26;;;;;;;9.70;1.95;;;21.40;33.60;;;;;;5133535;27;20657;-65
2024/02/26 11:59:01;;;;;;;5.90;2.03;;;21.40;33.60;;;;;;5131386;27;20218;-65
2024/02/26 12:01:47;;;;;;;7.72;1.73;;;21.40;33.60;;;;;;5132296;27;20315;-63
2024/02/26 12:04:17;;;;;;;9.85;1.98;;;21.40;33.50;;;;;;5132234;27;20216;-63
2024/02/26 12:06:48;;;;;;;9.23;2.40;;;21.40;33.50;;;;;;5132949;27;20341;-65
2024/02/26 12:09:34;;;;;;;6.93;1.80;;;21.40;33.50;;;;;;5126027;27;20597;-64
2024/02/26 12:12:02;;;;;;;4.57;1.77;;;21.40;33.40;;;;;;5133095;27;20219;-64
2024/02/26 12:14:29;;;;;;;8.07;1.92;;;21.40;33.30;;;;;;5133144;27;20307;-65
2024/02/26 12:16:58;;;;;;;5.07;1.90;;;21.40;33.30;;;;;;5132687;27;20200;-66
2024/02/26 12:19:25;;;;;;;4.68;1.50;;;21.40;33.30;;;;;;5133578;27;20220;-65
2024/02/26 12:21:54;;;;;;;7.45;1.90;;;21.40;33.20;;;;;;5132817;27;20308;-63
2024/02/26 12:24:22;;;;;;;8.45;2.20;;;21.40;33.60;;;;;;5132328;27;20668;-65
2024/02/26 12:26:49;;;;;;;8.63;2.13;;;21.40;32.90;;;;;;5132695;27;20204;-65
2024/02/26 12:29:15;;;;;;;6.95;1.75;;;21.40;32.80;;;;;;5133602;27;20762;-63
2024/02/26 12:31:43;;;;;;;9.45;2.05;;;21.40;32.70;;;;;;5132507;27;20192;-66
2024/02/26 12:34:11;;;;;;;7.75;1.70;;;21.40;33.70;;;;;;5133037;27;20231;-63
2024/02/26 12:36:40;;;;;;;10.15;1.83;;;21.40;33.00;;;;;;5133134;27;20283;-62
2024/02/26 12:39:09;;;;;;;6.13;1.77;;;21.40;32.80;;;;;;5124973;27;20250;-64
2024/02/26 12:41:36;;;;;;;5.90;1.58;;;21.40;32.70;;;;;;5132278;27;20192;-64
2024/02/26 12:44:03;;;;;;;6.75;2.22;;;21.40;32.70;;;;;;5132787;27;20315;-64
2024/02/26 12:46:30;;;;;;;9.20;1.73;;;21.40;33.40;;;;;;5132617;27;20279;-64
2024/02/26 12:48:58;;;;;;;6.35;1.90;;;21.40;32.70;;;;;;5133173;27;20224;-65